Impacts TAF Board
For situational awareness. Not to be used for flight planning purposes.
IDs:

KJFK - New York/Kennedy Int, NY, US

Issued at 0234 UTC 21 Sep 2018
Updated at 0356 UTC 21 Sep 2018
Potential Impact None Slight Moderate High
Time<<22/04Z 22/05Z 22/06Z 22/07Z 22/08Z 22/09Z 22/10Z 22/11Z 22/12Z 22/13Z 22/14Z 22/15Z 22/16Z
Type PRVL PRVL
VIS >6 >6
CIG 50 50
Cover BKN BKN
FltCat VFR VFR
WX -- --
WDir 210 210
WSpd 15 15
WGst 22 22
Raw TAF
KJFK 210234Z 2103/2206 14008KT P6SM SCT025 BKN040
  FM210400 16006KT P6SM BKN025
  FM211600 17012G19KT P6SM BKN035
  FM212100 18018G25KT P6SM SCT035 BKN050
  FM220300 21015G22KT P6SM SCT035 BKN050


METAR Board
Radar Display
Forecast Discussion
For situational awareness. Not to be used for flight planning purposes.